createdAt,value
2022-07-30T00:02:35.467Z,20.57
2022-07-30T00:07:38.142Z,20.50
2022-07-30T00:12:42.022Z,19.79
2022-07-30T00:17:46.741Z,18.83
2022-07-30T00:22:51.659Z,18.72
2022-07-30T00:27:55.611Z,19.41
2022-07-30T00:32:58.147Z,19.82
2022-07-30T00:38:00.845Z,19.04
2022-07-30T00:43:05.006Z,17.94
2022-07-30T00:48:07.505Z,18.01
2022-07-30T00:53:10.542Z,18.24
2022-07-30T00:58:14.378Z,19.47
2022-07-30T01:03:17.023Z,19.58
2022-07-30T01:08:19.626Z,20.06
2022-07-30T01:13:23.435Z,20.34
2022-07-30T01:18:47.945Z,20.67
2022-07-30T01:23:54.436Z,20.75
2022-07-30T01:29:00.537Z,20.50
2022-07-30T01:34:04.283Z,19.34
2022-07-30T01:39:08.252Z,19.11
2022-07-30T01:44:14.615Z,19.20
2022-07-30T01:49:28.593Z,18.79
2022-07-30T01:54:32.778Z,19.13
2022-07-30T01:59:37.489Z,19.41
2022-07-30T02:04:39.875Z,19.65
2022-07-30T02:09:49.923Z,19.68
2022-07-30T02:14:57.749Z,19.46
2022-07-30T02:20:03.062Z,19.40
2022-07-30T02:25:11.525Z,19.39
2022-07-30T02:30:16.809Z,19.19
2022-07-30T02:35:22.204Z,19.77
2022-07-30T02:40:25.037Z,20.06
2022-07-30T02:45:31.591Z,19.91
2022-07-30T02:50:35.082Z,20.01
2022-07-30T02:55:39.821Z,19.46
2022-07-30T03:00:44.488Z,19.82
2022-07-30T03:05:50.051Z,19.60
2022-07-30T03:10:54.811Z,19.69
2022-07-30T03:16:00.251Z,19.57
2022-07-30T03:21:06.995Z,19.66
2022-07-30T03:26:10.423Z,19.29
2022-07-30T03:31:15.387Z,19.50
2022-07-30T03:36:19.223Z,19.82
2022-07-30T03:41:23.543Z,20.08
2022-07-30T03:46:28.689Z,19.96
2022-07-30T03:51:33.114Z,20.22
2022-07-30T03:56:36.469Z,20.26
2022-07-30T04:01:40.461Z,20.19
2022-07-30T04:06:43.152Z,20.55
2022-07-30T04:11:45.860Z,20.39
2022-07-30T04:16:55.987Z,20.51
2022-07-30T04:22:01.835Z,20.44
2022-07-30T04:27:04.782Z,20.44
2022-07-30T04:32:10.241Z,20.56
2022-07-30T04:37:12.910Z,20.58
2022-07-30T04:42:15.401Z,20.45
2022-07-30T04:47:20.280Z,20.57
2022-07-30T04:52:23.725Z,20.64
2022-07-30T04:57:28.452Z,20.70
2022-07-30T05:02:35.706Z,20.76
2022-07-30T05:07:38.917Z,20.84
2022-07-30T05:12:41.528Z,20.76
2022-07-30T05:17:45.958Z,20.66
2022-07-30T05:22:50.903Z,20.65
2022-07-30T05:27:53.911Z,19.71
2022-07-30T05:32:58.217Z,20.01
2022-07-30T05:38:03.933Z,20.09
2022-07-30T05:43:06.807Z,19.83
2022-07-30T05:48:11.155Z,20.14
2022-07-30T05:53:13.600Z,20.08
2022-07-30T05:58:16.193Z,20.15
2022-07-30T06:03:20.013Z,20.41
2022-07-30T06:08:22.553Z,20.40
2022-07-30T06:13:25.004Z,20.65
2022-07-30T06:18:28.852Z,20.15
2022-07-30T06:23:31.269Z,20.05
2022-07-30T06:28:38.540Z,20.42
2022-07-30T06:33:43.104Z,20.42
2022-07-30T06:38:45.624Z,20.10
2022-07-30T06:43:48.113Z,19.90
2022-07-30T06:48:51.921Z,19.72
2022-07-30T06:53:54.486Z,19.98
2022-07-30T06:58:56.939Z,19.31
2022-07-30T07:04:00.788Z,19.80
2022-07-30T07:09:03.679Z,19.85
2022-07-30T07:14:06.139Z,20.34
2022-07-30T07:19:09.999Z,20.46
2022-07-30T07:24:16.025Z,20.79
2022-07-30T07:29:18.596Z,20.82
2022-07-30T07:34:22.602Z,21.17
2022-07-30T07:39:25.184Z,21.01
2022-07-30T07:44:29.856Z,21.33
2022-07-30T07:49:33.828Z,21.34
2022-07-30T07:54:36.304Z,21.19
2022-07-30T07:59:41.079Z,21.06
2022-07-30T08:04:46.541Z,21.14
2022-07-30T08:09:48.963Z,21.12
2022-07-30T08:14:51.404Z,21.65
2022-07-30T08:19:58.849Z,21.64
2022-07-30T08:25:01.325Z,21.86
2022-07-30T08:30:08.122Z,22.32
2022-07-30T08:35:12.013Z,22.49
2022-07-30T08:40:14.394Z,22.53
2022-07-30T08:45:18.199Z,22.58
2022-07-30T08:50:22.487Z,22.22
2022-07-30T08:55:26.024Z,22.19
2022-07-30T09:00:28.545Z,22.11
2022-07-30T09:05:33.179Z,20.91
2022-07-30T09:10:35.819Z,20.28
2022-07-30T09:15:39.915Z,20.06
2022-07-30T09:20:43.968Z,20.10
2022-07-30T09:25:48.140Z,20.26
2022-07-30T09:30:55.573Z,20.34
2022-07-30T09:35:59.595Z,20.36
2022-07-30T09:41:08.048Z,20.24
2022-07-30T09:46:19.889Z,20.16
2022-07-30T09:51:54.719Z,20.33
2022-07-30T09:57:23.154Z,20.51
2022-07-30T10:02:33.310Z,20.44
2022-07-30T10:07:42.886Z,20.59
2022-07-30T10:12:47.223Z,20.87
2022-07-30T10:17:51.915Z,21.44
2022-07-30T10:22:56.133Z,21.67
2022-07-30T10:28:00.911Z,21.33
2022-07-30T10:33:08.498Z,20.77
2022-07-30T10:38:39.380Z,20.67
2022-07-30T10:43:56.473Z,20.71
2022-07-30T10:49:11.758Z,20.47
2022-07-30T10:54:40.211Z,20.29
2022-07-30T11:00:15.199Z,19.61
2022-07-30T11:05:45.192Z,19.87
2022-07-30T11:10:49.995Z,20.83
2022-07-30T11:15:54.442Z,20.92
2022-07-30T11:21:21.370Z,21.20
2022-07-30T11:32:29.563Z,21.61
2022-07-30T11:38:01.954Z,21.70
2022-07-30T11:43:18.100Z,21.74
2022-07-30T11:48:22.216Z,21.80
2022-07-30T11:53:24.786Z,21.66
2022-07-30T11:58:29.763Z,21.69
2022-07-30T12:03:33.932Z,21.72
2022-07-30T12:08:44.000Z,21.81
2022-07-30T12:13:56.739Z,21.98
2022-07-30T12:19:03.842Z,22.03
2022-07-30T12:24:09.805Z,22.25
2022-07-30T12:29:13.801Z,22.06
2022-07-30T12:34:23.962Z,22.54
2022-07-30T12:39:27.828Z,22.13
2022-07-30T12:44:38.660Z,21.22
2022-07-30T12:49:48.791Z,21.75
2022-07-30T12:54:59.783Z,21.88
2022-07-30T13:00:03.810Z,21.62
2022-07-30T13:05:10.554Z,21.60
2022-07-30T13:10:18.724Z,21.86
2022-07-30T13:15:21.791Z,21.76
2022-07-30T13:20:25.644Z,22.11
2022-07-30T13:25:28.224Z,22.06
2022-07-30T13:30:42.893Z,22.36
2022-07-30T13:35:47.033Z,21.88
2022-07-30T13:40:49.663Z,21.74
2022-07-30T13:45:53.573Z,22.09
2022-07-30T13:51:05.572Z,21.97
2022-07-30T13:56:12.525Z,22.04
2022-07-30T14:01:17.964Z,22.12
2022-07-30T14:06:22.330Z,22.09
2022-07-30T14:11:25.503Z,22.09
2022-07-30T14:16:44.684Z,21.53
2022-07-30T14:21:49.161Z,22.07
2022-07-30T14:26:58.608Z,22.16
2022-07-30T14:32:01.281Z,22.07
2022-07-30T14:37:05.397Z,22.16
2022-07-30T14:42:09.447Z,22.20
2022-07-30T14:47:11.928Z,21.81
2022-07-30T14:52:15.720Z,21.68
2022-07-30T14:57:18.181Z,21.38
2022-07-30T15:07:24.438Z,22.21
2022-07-30T15:12:27.773Z,22.35
2022-07-30T15:17:30.946Z,22.08
2022-07-30T15:22:34.729Z,21.91
2022-07-30T15:27:37.589Z,21.99
2022-07-30T15:32:40.107Z,22.27
2022-07-30T15:37:44.151Z,21.81
2022-07-30T15:42:46.824Z,22.44
2022-07-30T15:47:49.261Z,21.75
2022-07-30T15:52:54.097Z,21.82
2022-07-30T15:57:56.751Z,21.94
2022-07-30T16:03:00.229Z,22.05
2022-07-30T16:08:04.015Z,22.01
2022-07-30T16:13:06.897Z,21.63
2022-07-30T16:18:09.378Z,21.67
2022-07-30T16:23:15.964Z,21.73
2022-07-30T16:28:20.777Z,21.42
2022-07-30T16:33:23.274Z,21.34
2022-07-30T16:38:27.199Z,21.66
2022-07-30T16:43:31.773Z,21.56
2022-07-30T16:48:34.659Z,21.65
2022-07-30T16:53:38.603Z,21.87
2022-07-30T16:58:40.965Z,21.65
2022-07-30T17:03:43.629Z,21.63
2022-07-30T17:08:47.628Z,21.28
2022-07-30T17:13:51.332Z,21.18
2022-07-30T17:18:53.795Z,21.60
2022-07-30T17:23:57.619Z,21.67
2022-07-30T17:29:00.156Z,21.69
2022-07-30T17:34:02.616Z,21.96
2022-07-30T17:39:06.926Z,21.99
2022-07-30T17:44:09.672Z,21.82
2022-07-30T17:49:12.370Z,21.88
2022-07-30T17:54:16.221Z,22.23
2022-07-30T17:59:19.180Z,22.38
2022-07-30T18:04:21.846Z,22.74
2022-07-30T18:09:25.725Z,21.68
2022-07-30T18:14:28.437Z,21.06
2022-07-30T18:19:31.019Z,20.77
2022-07-30T18:24:40.326Z,20.50
2022-07-30T18:29:43.252Z,20.50
2022-07-30T18:34:45.736Z,20.34
2022-07-30T18:39:49.667Z,20.11
2022-07-30T18:44:52.228Z,19.98
2022-07-30T18:49:55.977Z,19.71
2022-07-30T18:54:59.862Z,19.43
2022-07-30T19:00:02.924Z,19.41
2022-07-30T19:05:07.936Z,19.26
2022-07-30T19:10:13.323Z,18.81
2022-07-30T19:15:15.846Z,18.55
2022-07-30T19:20:18.867Z,18.47
2022-07-30T19:25:23.015Z,18.56
2022-07-30T19:30:25.840Z,18.84
2022-07-30T19:35:28.341Z,19.06
2022-07-30T19:40:32.259Z,18.78
2022-07-30T19:45:46.909Z,19.19
2022-07-30T19:50:50.795Z,19.16
2022-07-30T19:55:54.591Z,19.22
2022-07-30T20:00:57.895Z,18.84
2022-07-30T20:06:00.741Z,18.93
2022-07-30T20:11:07.154Z,18.77
2022-07-30T20:16:12.079Z,18.15
2022-07-30T20:21:16.013Z,18.48
2022-07-30T20:26:20.553Z,18.69
2022-07-30T20:31:22.980Z,18.43
2022-07-30T20:36:28.895Z,17.87
2022-07-30T20:41:32.752Z,17.62
2022-07-30T20:46:36.347Z,17.25
2022-07-30T20:51:41.632Z,17.33
2022-07-30T20:56:45.708Z,17.15
2022-07-30T21:01:49.619Z,17.23
2022-07-30T21:06:53.670Z,17.14
2022-07-30T21:11:57.662Z,18.00
2022-07-30T21:17:03.043Z,17.84
2022-07-30T21:22:06.129Z,17.39
2022-07-30T21:27:10.765Z,17.27
2022-07-30T21:32:15.878Z,16.75
2022-07-30T21:37:20.961Z,16.87
2022-07-30T21:42:30.157Z,17.40
2022-07-30T21:47:33.338Z,16.80
2022-07-30T21:52:36.027Z,17.55
2022-07-30T21:57:39.789Z,17.59
2022-07-30T22:02:52.628Z,17.76
2022-07-30T22:07:56.478Z,17.97
2022-07-30T22:13:00.573Z,17.84
2022-07-30T22:18:03.547Z,17.80
2022-07-30T22:23:07.315Z,17.29
2022-07-30T22:28:12.465Z,17.59
2022-07-30T22:33:17.736Z,17.25
2022-07-30T22:38:20.438Z,17.38
2022-07-30T22:43:26.991Z,17.71
2022-07-30T22:48:40.669Z,16.39
2022-07-30T22:54:03.461Z,16.44
2022-07-30T22:59:07.177Z,16.83
2022-07-30T23:04:09.919Z,17.48
2022-07-30T23:09:12.728Z,17.29
2022-07-30T23:14:16.509Z,17.02
2022-07-30T23:19:22.109Z,17.48
2022-07-30T23:24:24.856Z,17.30
2022-07-30T23:29:29.395Z,17.44
2022-07-30T23:34:32.105Z,17.48
2022-07-30T23:39:34.573Z,17.18
2022-07-30T23:44:38.628Z,16.78
2022-07-30T23:49:41.091Z,16.82
2022-07-30T23:54:43.559Z,16.84
2022-07-30T23:59:47.386Z,17.04
